createdAt,value
2019-05-18T00:00:32.946Z,63.00
2019-05-18T00:03:00.768Z,63.90
2019-05-18T00:05:28.494Z,63.60
2019-05-18T00:07:56.138Z,64.00
2019-05-18T00:10:23.786Z,64.30
2019-05-18T00:12:51.524Z,64.20
2019-05-18T00:15:19.169Z,64.40
2019-05-18T00:17:46.837Z,64.30
2019-05-18T00:20:15.610Z,64.30
2019-05-18T00:22:43.410Z,64.30
2019-05-18T00:25:11.389Z,64.30
2019-05-18T00:27:39.034Z,64.30
2019-05-18T00:30:08.194Z,64.40
2019-05-18T00:32:36.044Z,64.60
2019-05-18T00:35:04.689Z,64.50
2019-05-18T00:37:32.460Z,64.50
2019-05-18T00:40:00.076Z,64.40
2019-05-18T00:42:27.700Z,64.10
2019-05-18T00:44:55.339Z,63.80
2019-05-18T00:47:22.992Z,64.20
2019-05-18T00:49:50.699Z,63.10
2019-05-18T00:52:18.352Z,63.00
2019-05-18T00:54:46.096Z,62.90
2019-05-18T00:57:13.743Z,62.80
2019-05-18T00:59:41.398Z,62.80
2019-05-18T01:02:09.058Z,62.90
2019-05-18T01:04:36.719Z,63.00
2019-05-18T01:07:04.584Z,63.20
2019-05-18T01:09:32.231Z,63.50
2019-05-18T01:11:59.890Z,63.20
2019-05-18T01:14:27.613Z,63.20
2019-05-18T01:16:55.185Z,64.00
2019-05-18T01:19:22.905Z,63.20
2019-05-18T01:21:50.692Z,63.20
2019-05-18T01:24:18.375Z,63.30
2019-05-18T01:26:47.101Z,63.10
2019-05-18T01:29:14.775Z,63.00
2019-05-18T01:31:42.415Z,63.00
2019-05-18T01:34:10.052Z,63.00
2019-05-18T01:36:38.737Z,63.10
2019-05-18T01:39:06.657Z,63.10
2019-05-18T01:41:34.264Z,63.10
2019-05-18T01:44:02.031Z,62.90
2019-05-18T01:46:29.775Z,62.90
2019-05-18T01:48:57.397Z,62.90
2019-05-18T01:51:26.136Z,62.90
2019-05-18T01:53:53.927Z,62.90
2019-05-18T01:56:21.589Z,62.90
2019-05-18T01:58:49.250Z,63.00
2019-05-18T02:01:16.876Z,63.00
2019-05-18T02:03:44.493Z,62.90
2019-05-18T02:06:12.204Z,62.90
2019-05-18T02:08:41.009Z,62.70
2019-05-18T02:11:08.673Z,62.90
2019-05-18T02:13:38.106Z,62.80
2019-05-18T02:16:05.874Z,62.60
2019-05-18T02:18:33.517Z,62.50
2019-05-18T02:21:01.163Z,62.60
2019-05-18T02:23:30.640Z,62.60
2019-05-18T02:25:58.250Z,63.00
2019-05-18T02:28:26.026Z,63.10
2019-05-18T02:30:54.835Z,63.00
2019-05-18T02:33:22.574Z,63.70
2019-05-18T02:35:50.263Z,62.80
2019-05-18T02:38:18.298Z,62.70
2019-05-18T02:40:46.331Z,62.50
2019-05-18T02:43:15.525Z,62.60
2019-05-18T02:45:43.253Z,62.40
2019-05-18T02:48:10.894Z,62.20
2019-05-18T02:50:38.671Z,62.10
2019-05-18T02:53:06.426Z,62.10
2019-05-18T02:55:34.076Z,62.00
2019-05-18T02:58:01.699Z,61.90
2019-05-18T03:00:29.341Z,61.70
2019-05-18T03:02:56.965Z,61.60
2019-05-18T03:05:24.603Z,61.70
2019-05-18T03:07:52.200Z,61.70
2019-05-18T03:10:19.854Z,61.70
2019-05-18T03:12:47.481Z,61.80
2019-05-18T03:15:15.200Z,62.10
2019-05-18T03:17:42.800Z,62.20
2019-05-18T03:20:11.345Z,62.10
2019-05-18T03:22:38.975Z,62.30
2019-05-18T03:25:07.363Z,62.30
2019-05-18T03:27:35.071Z,62.40
2019-05-18T03:30:02.894Z,62.60
2019-05-18T03:32:31.647Z,62.70
2019-05-18T03:34:59.236Z,63.30
2019-05-18T03:37:26.876Z,63.30
2019-05-18T03:39:54.609Z,63.80
2019-05-18T03:42:22.259Z,64.00
2019-05-18T03:44:49.978Z,64.50
2019-05-18T03:47:17.831Z,64.80
2019-05-18T03:49:45.558Z,65.20
2019-05-18T03:52:13.270Z,65.60
2019-05-18T03:54:40.931Z,66.30
2019-05-18T03:57:08.560Z,66.70
2019-05-18T03:59:36.322Z,67.10
2019-05-18T04:02:03.937Z,67.00
2019-05-18T04:04:31.581Z,67.20
2019-05-18T04:06:59.218Z,67.10
2019-05-18T04:09:26.853Z,68.10
2019-05-18T04:11:54.448Z,67.20
2019-05-18T04:14:22.196Z,67.50
2019-05-18T04:16:50.056Z,67.80
2019-05-18T04:19:17.864Z,67.70
2019-05-18T04:21:45.741Z,67.50
2019-05-18T04:24:14.800Z,67.60
2019-05-18T04:26:43.911Z,67.50
2019-05-18T04:29:11.781Z,67.30
2019-05-18T04:31:39.564Z,67.40
2019-05-18T04:34:07.498Z,67.40
2019-05-18T04:36:35.207Z,67.20
2019-05-18T04:39:04.868Z,67.30
2019-05-18T04:41:42.190Z,67.50
2019-05-18T04:44:10.076Z,68.70
2019-05-18T04:46:37.802Z,68.00
2019-05-18T04:49:05.624Z,68.20
2019-05-18T04:51:35.516Z,68.90
2019-05-18T04:54:03.421Z,68.20
2019-05-18T04:56:31.573Z,68.50
2019-05-18T04:58:59.515Z,68.50
2019-05-18T05:01:27.369Z,68.30
2019-05-18T05:03:55.257Z,68.60
2019-05-18T05:06:23.019Z,68.50
2019-05-18T05:08:50.775Z,67.50
2019-05-18T05:11:18.488Z,67.60
2019-05-18T05:13:48.143Z,67.60
2019-05-18T05:16:16.113Z,67.70
2019-05-18T05:18:45.153Z,67.80
2019-05-18T05:21:13.622Z,67.90
2019-05-18T05:23:41.440Z,68.10
2019-05-18T05:26:09.367Z,68.30
2019-05-18T05:28:37.062Z,68.30
2019-05-18T05:31:05.013Z,68.40
2019-05-18T05:33:32.922Z,68.40
2019-05-18T05:36:00.807Z,68.40
2019-05-18T05:38:28.563Z,68.30
2019-05-18T05:40:56.333Z,68.30
2019-05-18T05:43:24.199Z,68.30
2019-05-18T05:45:55.012Z,68.40
2019-05-18T05:48:22.801Z,68.50
2019-05-18T05:50:50.554Z,68.60
2019-05-18T05:53:18.231Z,68.90
2019-05-18T05:55:46.064Z,68.90
2019-05-18T05:58:14.923Z,68.80
2019-05-18T06:00:42.764Z,68.90
2019-05-18T06:03:10.677Z,69.10
2019-05-18T06:05:38.454Z,69.00
2019-05-18T06:08:06.162Z,69.10
2019-05-18T06:10:33.977Z,69.20
2019-05-18T06:13:01.844Z,69.10
2019-05-18T06:15:29.819Z,69.00
2019-05-18T06:17:57.749Z,69.30
2019-05-18T06:20:25.434Z,69.40
2019-05-18T06:22:54.458Z,69.80
2019-05-18T06:25:22.273Z,69.90
2019-05-18T06:27:50.233Z,70.30
2019-05-18T06:30:18.268Z,70.30
2019-05-18T06:32:46.306Z,70.40
2019-05-18T06:35:14.308Z,70.60
2019-05-18T06:37:42.125Z,70.80
2019-05-18T06:40:09.951Z,71.00
2019-05-18T06:42:37.978Z,72.00
2019-05-18T06:45:07.432Z,71.10
2019-05-18T06:47:35.320Z,71.20
2019-05-18T06:50:04.197Z,71.20
2019-05-18T06:52:31.898Z,71.40
2019-05-18T06:54:59.966Z,71.50
2019-05-18T06:57:28.629Z,71.70
2019-05-18T06:59:58.371Z,71.80
2019-05-18T07:02:26.064Z,71.70
2019-05-18T07:04:53.933Z,71.60
2019-05-18T07:07:21.689Z,71.90
2019-05-18T07:09:49.512Z,71.90
2019-05-18T07:12:17.412Z,72.10
2019-05-18T07:14:45.177Z,71.80
2019-05-18T07:17:12.945Z,72.60
2019-05-18T07:19:42.483Z,72.60
2019-05-18T07:22:10.221Z,72.50
2019-05-18T07:24:37.956Z,72.50
2019-05-18T07:27:05.663Z,72.50
2019-05-18T07:29:33.466Z,72.50
2019-05-18T07:32:01.278Z,72.20
2019-05-18T07:34:29.093Z,72.00
2019-05-18T07:36:58.574Z,72.20
2019-05-18T07:39:26.268Z,72.10
2019-05-18T07:41:54.128Z,72.10
2019-05-18T07:44:21.877Z,72.00
2019-05-18T07:46:49.644Z,71.90
2019-05-18T07:49:19.199Z,71.90
2019-05-18T07:51:47.957Z,71.90
2019-05-18T07:54:15.831Z,71.80
2019-05-18T07:56:44.002Z,71.60
2019-05-18T07:59:11.723Z,71.50
2019-05-18T08:01:40.656Z,71.60
2019-05-18T08:04:08.337Z,71.80
2019-05-18T08:06:36.195Z,72.00
2019-05-18T08:09:06.117Z,72.00
2019-05-18T08:11:33.927Z,71.90
2019-05-18T08:14:03.620Z,71.90
2019-05-18T08:16:31.290Z,72.00
2019-05-18T08:19:00.401Z,71.70
2019-05-18T08:21:28.165Z,71.70
2019-05-18T08:23:55.803Z,71.60
2019-05-18T08:26:23.431Z,71.30
2019-05-18T08:28:52.883Z,71.30
2019-05-18T08:31:20.552Z,70.80
2019-05-18T08:33:48.328Z,70.70
2019-05-18T08:36:15.956Z,70.60
2019-05-18T08:38:43.634Z,70.40
2019-05-18T08:41:11.225Z,70.60
2019-05-18T08:43:39.059Z,70.50
2019-05-18T08:46:06.834Z,70.40
2019-05-18T08:48:34.547Z,71.20
2019-05-18T08:51:02.265Z,69.90
2019-05-18T08:53:29.878Z,69.30
2019-05-18T08:55:58.663Z,69.10
2019-05-18T08:58:26.406Z,68.60
2019-05-18T09:00:54.154Z,68.10
2019-05-18T09:03:21.801Z,68.30
2019-05-18T09:05:49.517Z,67.20
2019-05-18T09:08:17.197Z,67.30
2019-05-18T09:10:44.874Z,66.90
2019-05-18T09:13:13.594Z,65.80
2019-05-18T09:15:41.368Z,64.80
2019-05-18T09:18:09.044Z,63.60
2019-05-18T09:20:36.793Z,63.90
2019-05-18T09:23:04.474Z,64.00
2019-05-18T09:25:32.104Z,63.20
2019-05-18T09:27:59.768Z,63.00
2019-05-18T09:30:27.444Z,63.40
2019-05-18T09:32:55.098Z,63.20
2019-05-18T09:35:22.729Z,62.70
2019-05-18T09:37:51.842Z,64.50
2019-05-18T09:40:19.582Z,63.60
2019-05-18T09:42:47.258Z,63.50
2019-05-18T09:45:15.380Z,64.20
2019-05-18T09:47:43.030Z,63.80
2019-05-18T09:50:11.937Z,62.70
2019-05-18T09:52:45.501Z,61.30
2019-05-18T09:55:09.862Z,60.90
2019-05-18T09:57:37.509Z,62.30
2019-05-18T10:00:06.087Z,62.70
2019-05-18T10:02:33.860Z,60.60
2019-05-18T10:05:02.084Z,60.50
2019-05-18T10:07:31.064Z,59.60
2019-05-18T10:09:58.954Z,59.60
2019-05-18T10:12:26.614Z,60.20
2019-05-18T10:14:54.308Z,60.20
2019-05-18T10:17:22.009Z,59.90
2019-05-18T10:19:49.916Z,60.00
2019-05-18T10:22:17.588Z,60.40
2019-05-18T10:24:45.214Z,59.20
2019-05-18T10:27:12.840Z,58.40
2019-05-18T10:29:40.484Z,58.80
2019-05-18T10:32:09.401Z,60.10
2019-05-18T10:34:37.054Z,60.30
2019-05-18T10:37:04.791Z,59.90
2019-05-18T10:39:33.485Z,58.80
2019-05-18T10:42:01.261Z,58.40
2019-05-18T10:44:28.953Z,58.30
2019-05-18T10:46:56.595Z,58.40
2019-05-18T10:49:24.286Z,58.70
2019-05-18T10:51:56.066Z,58.50
2019-05-18T10:54:24.892Z,59.00
2019-05-18T10:56:52.554Z,59.00
2019-05-18T10:59:20.196Z,58.50
2019-05-18T11:01:47.978Z,59.60
2019-05-18T11:04:15.668Z,58.80
2019-05-18T11:06:43.418Z,58.10
2019-05-18T11:09:12.229Z,58.40
2019-05-18T11:11:39.989Z,58.20
2019-05-18T11:14:07.757Z,57.80
2019-05-18T11:16:36.638Z,56.50
2019-05-18T11:19:05.487Z,56.30
2019-05-18T11:21:33.173Z,56.80
2019-05-18T11:24:02.927Z,56.40
2019-05-18T11:26:30.653Z,57.00
2019-05-18T11:28:58.364Z,56.00
2019-05-18T11:31:26.171Z,56.90
2019-05-18T11:33:53.885Z,56.60
2019-05-18T11:36:21.695Z,55.60
2019-05-18T11:38:49.337Z,56.00
2019-05-18T11:41:17.053Z,55.70
2019-05-18T11:43:44.803Z,54.60
2019-05-18T11:46:12.441Z,54.30
2019-05-18T11:48:41.108Z,54.80
2019-05-18T11:51:08.854Z,54.50
2019-05-18T11:53:36.610Z,53.70
2019-05-18T11:56:04.411Z,53.30
2019-05-18T11:58:32.053Z,53.70
2019-05-18T12:00:59.674Z,54.30
2019-05-18T12:03:27.419Z,53.40
2019-05-18T12:05:56.174Z,53.10
2019-05-18T12:08:23.978Z,53.30
2019-05-18T12:10:52.256Z,54.30
2019-05-18T12:13:22.392Z,52.50
2019-05-18T12:15:49.623Z,53.60
2019-05-18T12:18:17.237Z,54.10
2019-05-18T12:20:44.922Z,53.40
2019-05-18T12:23:13.763Z,53.30
2019-05-18T12:25:41.435Z,52.70
2019-05-18T12:28:11.027Z,53.30
2019-05-18T12:30:38.640Z,54.40
2019-05-18T12:33:06.313Z,53.30
2019-05-18T12:35:34.150Z,53.60
2019-05-18T12:38:01.852Z,53.50
2019-05-18T12:40:29.452Z,53.70
2019-05-18T12:42:57.203Z,53.60
2019-05-18T12:45:25.127Z,53.20
2019-05-18T12:47:52.876Z,53.60
2019-05-18T12:50:22.714Z,53.60
2019-05-18T12:52:50.360Z,53.60
2019-05-18T12:55:18.412Z,53.60
2019-05-18T12:57:46.124Z,53.40
2019-05-18T13:00:15.061Z,54.30
2019-05-18T13:02:42.726Z,54.90
2019-05-18T13:05:10.929Z,54.80
2019-05-18T13:07:38.841Z,54.10
2019-05-18T13:10:07.518Z,53.70
2019-05-18T13:12:35.312Z,53.30
2019-05-18T13:15:04.185Z,53.30
2019-05-18T13:17:32.024Z,54.00
2019-05-18T13:19:59.787Z,52.90
2019-05-18T13:22:29.174Z,53.40
2019-05-18T13:24:56.825Z,53.00
2019-05-18T13:27:38.340Z,53.40
2019-05-18T13:29:53.947Z,52.50
2019-05-18T13:32:23.450Z,52.40
2019-05-18T13:34:51.098Z,53.20
2019-05-18T13:37:20.562Z,53.00
2019-05-18T13:40:01.419Z,53.80
2019-05-18T13:42:29.171Z,53.20
2019-05-18T13:44:56.814Z,52.70
2019-05-18T13:47:24.488Z,51.60
2019-05-18T13:49:52.204Z,51.70
2019-05-18T16:47:26.059Z,65.20
2019-05-18T16:49:54.916Z,65.90
2019-05-18T16:52:22.558Z,65.00
2019-05-18T16:54:50.374Z,62.30
2019-05-18T16:57:18.017Z,60.10
2019-05-18T16:59:45.845Z,58.80
2019-05-18T17:02:31.163Z,57.30
2019-05-18T17:04:48.900Z,56.90
2019-05-18T17:07:16.656Z,56.70
2019-05-18T17:09:44.333Z,56.10
2019-05-18T17:12:11.950Z,55.60
2019-05-18T17:14:39.620Z,54.20
2019-05-18T17:17:07.329Z,53.80
2019-05-18T17:19:34.987Z,52.90
2019-05-18T17:22:02.709Z,53.40
2019-05-18T17:24:30.374Z,52.70
2019-05-18T17:26:58.167Z,52.40
2019-05-18T17:29:25.889Z,51.80
2019-05-18T17:31:53.650Z,50.70
2019-05-18T17:34:21.284Z,50.20
2019-05-18T17:36:52.534Z,50.50
2019-05-18T17:39:18.535Z,50.40
2019-05-18T17:41:46.349Z,50.80
2019-05-18T17:44:14.871Z,50.70
2019-05-18T17:46:43.118Z,51.30
2019-05-18T17:49:25.813Z,51.20
2019-05-18T17:51:40.522Z,50.50
2019-05-18T17:54:08.353Z,51.00
2019-05-18T17:56:36.903Z,50.60
2019-05-18T17:59:04.687Z,50.40
2019-05-18T18:01:32.342Z,50.80
2019-05-18T18:04:01.117Z,51.50
2019-05-18T18:06:30.150Z,51.20
2019-05-18T18:08:58.133Z,50.90
2019-05-18T18:11:25.821Z,50.60
2019-05-18T18:13:53.853Z,50.70
2019-05-18T18:16:21.664Z,50.70
2019-05-18T18:18:49.384Z,51.10
2019-05-18T18:21:17.263Z,51.50
2019-05-18T18:23:52.074Z,51.80
2019-05-18T18:26:14.663Z,52.30
2019-05-18T18:28:42.420Z,52.20
2019-05-18T18:31:10.225Z,52.20
2019-05-18T18:33:38.077Z,53.00
2019-05-18T18:36:05.876Z,53.00
2019-05-18T18:38:35.545Z,52.70
2019-05-18T18:41:03.469Z,52.90
2019-05-18T18:43:31.192Z,52.90
2019-05-18T18:45:59.013Z,52.90
2019-05-18T18:48:27.922Z,53.70
2019-05-18T18:50:55.634Z,54.30
2019-05-18T18:53:23.313Z,53.60
2019-05-18T18:55:50.976Z,53.30
2019-05-18T18:58:19.015Z,53.20
2019-05-18T19:00:47.082Z,53.90
2019-05-18T19:03:16.120Z,53.80
2019-05-18T19:05:45.171Z,54.10
2019-05-18T19:08:14.861Z,54.00
2019-05-18T19:10:44.628Z,54.20
2019-05-18T19:13:12.694Z,54.60
2019-05-18T19:15:40.513Z,54.70
2019-05-18T19:18:08.222Z,54.70
2019-05-18T19:20:36.623Z,54.60
2019-05-18T19:23:09.411Z,54.80
2019-05-18T19:25:38.810Z,54.90
2019-05-18T19:28:06.920Z,54.90
2019-05-18T19:30:34.810Z,55.30
2019-05-18T19:33:04.076Z,55.90
2019-05-18T19:35:31.939Z,55.80
2019-05-18T19:37:59.900Z,55.90
2019-05-18T19:40:29.630Z,56.00
2019-05-18T19:42:57.489Z,56.10
2019-05-18T19:45:25.331Z,56.40
2019-05-18T19:47:53.250Z,56.90
2019-05-18T19:50:21.068Z,56.90
2019-05-18T19:52:48.788Z,56.90
2019-05-18T19:55:16.750Z,57.10
2019-05-18T19:57:45.694Z,57.20
2019-05-18T20:00:13.782Z,57.20
2019-05-18T20:02:41.526Z,57.30
2019-05-18T20:05:10.089Z,57.50
2019-05-18T20:07:37.957Z,57.80
2019-05-18T20:10:06.263Z,58.20
2019-05-18T20:12:35.326Z,58.40
2019-05-18T20:15:03.609Z,58.60
2019-05-18T20:17:31.476Z,58.50
2019-05-18T20:20:01.011Z,58.60
2019-05-18T20:22:28.854Z,58.60
2019-05-18T20:24:56.725Z,58.50
2019-05-18T20:27:24.498Z,58.40
2019-05-18T20:29:52.266Z,58.50
2019-05-18T20:32:20.065Z,58.90
2019-05-18T20:34:47.928Z,58.40
2019-05-18T20:37:18.445Z,58.80
2019-05-18T20:39:46.414Z,59.00
2019-05-18T20:42:14.174Z,59.00
2019-05-18T20:44:43.078Z,58.90
2019-05-18T20:47:10.811Z,58.90
2019-05-18T20:49:38.723Z,59.00
2019-05-18T20:52:07.709Z,59.00
2019-05-18T20:54:35.706Z,58.90
2019-05-18T20:57:03.436Z,59.20
2019-05-18T20:59:31.121Z,59.00
2019-05-18T21:01:58.789Z,59.10
2019-05-18T21:04:28.517Z,59.00
2019-05-18T21:06:56.136Z,59.00
2019-05-18T21:09:24.008Z,59.40
2019-05-18T21:11:51.806Z,59.20
2019-05-18T21:14:19.618Z,59.60
2019-05-18T21:16:47.282Z,59.40
2019-05-18T21:19:15.457Z,59.40
2019-05-18T21:21:43.376Z,59.60
2019-05-18T21:24:11.219Z,59.50
2019-05-18T21:26:39.159Z,59.50
2019-05-18T21:29:06.911Z,59.60
2019-05-18T21:31:34.875Z,59.60
2019-05-18T21:34:04.511Z,59.80
2019-05-18T21:36:32.261Z,60.40
2019-05-18T21:39:00.047Z,60.00
2019-05-18T21:41:27.771Z,59.80
2019-05-18T21:43:55.490Z,59.70
2019-05-18T21:46:23.286Z,59.50
2019-05-18T21:48:52.135Z,59.70
2019-05-18T21:51:20.010Z,59.90
2019-05-18T21:53:47.703Z,60.40
2019-05-18T21:56:15.507Z,60.60
2019-05-18T21:58:43.294Z,60.60
2019-05-18T22:01:11.088Z,60.80
2019-05-18T22:03:43.892Z,60.80
2019-05-18T22:06:09.526Z,60.90
2019-05-18T22:08:38.366Z,60.80
2019-05-18T22:11:05.991Z,60.60
2019-05-18T22:13:33.684Z,60.80
2019-05-18T22:16:01.598Z,60.90
2019-05-18T22:18:29.342Z,61.00
2019-05-18T22:20:57.031Z,61.00
2019-05-18T22:23:24.833Z,61.10
2019-05-18T22:25:56.870Z,60.80
2019-05-18T22:28:23.401Z,60.90
2019-05-18T22:30:51.204Z,61.00
2019-05-18T22:33:18.962Z,60.80
2019-05-18T22:35:46.752Z,60.90
2019-05-18T22:38:14.455Z,60.60
2019-05-18T22:40:42.135Z,60.60
2019-05-18T22:43:09.894Z,60.90
2019-05-18T22:45:37.751Z,60.70
2019-05-18T22:48:05.623Z,61.10
2019-05-18T22:50:33.467Z,61.10
2019-05-18T22:53:01.450Z,61.80
2019-05-18T22:55:29.061Z,61.10
2019-05-18T22:57:56.861Z,61.20
2019-05-18T23:00:24.838Z,61.20
2019-05-18T23:02:52.822Z,61.40
2019-05-18T23:05:20.583Z,61.20
2019-05-18T23:07:48.480Z,61.40
2019-05-18T23:10:16.849Z,61.40
2019-05-18T23:12:44.609Z,61.50
2019-05-18T23:15:12.856Z,61.40
2019-05-18T23:17:40.591Z,62.20
2019-05-18T23:20:08.597Z,62.00
2019-05-18T23:22:36.440Z,62.50
2019-05-18T23:25:05.016Z,62.70
2019-05-18T23:27:32.738Z,62.70
2019-05-18T23:30:00.636Z,62.60
2019-05-18T23:32:28.498Z,62.20
2019-05-18T23:34:57.982Z,62.00
2019-05-18T23:37:25.612Z,61.70
2019-05-18T23:39:53.261Z,61.50
2019-05-18T23:42:20.940Z,61.20
2019-05-18T23:44:48.673Z,61.10
2019-05-18T23:47:17.995Z,61.20
2019-05-18T23:49:45.595Z,61.50
2019-05-18T23:52:13.227Z,61.50
2019-05-18T23:54:41.050Z,61.60
2019-05-18T23:57:08.778Z,61.80
2019-05-18T23:59:36.748Z,62.00
